Alton, IN

10:58 AM EDT on October 24, 2014 (GMT -0400)
Bowman | Change Station
CLOSE
Current Station
Airport
Location: Louisville Bowman,
Elevation: 545 ft
Nearby Weather Stations

Elev 545 ft 38.23 °N, 85.66 °W | Updated 5 minutes ago

Overcast
Overcast
52 °F
Feels Like 52 °F
N
4
Wind Variable Wind from ESE

Today
High -- | Low -- °F
--% Chance of Precip.
Yesterday
High -- | Low -- °F
Precip. -- in
8:03 AM 6:55 PM
New Moon, 1% visible
Pressure 30.15 in
Visibility 8.0 miles
Clouds Clear
Dew Point 45 °F
Humidity 77%
Rainfall 0.00 in
Snow Depth Not available.
UV 3 out of 12
Pollen 1.10 out of 12
Ozone Good
PM2.5 Moderate
Flu Activity Sporadic
METAR KLOU 241453Z 12003KT 8SM CLR 11/07 A3014 RMK AO2 SLP208 T01110072 50003

More Conditions Fewer Conditions

Pressure 30.15 in
Visibility 8.0 miles
Clouds Clear
Dew Point 45 °F
Humidity 77%
Rainfall 0.00 in
Snow Depth Not available.
UV 3 out of 12
Pollen 1.10 out of 12
Ozone Good
PM2.5 Moderate
Flu Activity Sporadic
METAR KLOU 241453Z 12003KT 8SM CLR 11/07 A3014 RMK AO2 SLP208 T01110072 50003

More Conditions Fewer Conditions

10-Day Weather Forecast

Almanac

Astronomy

Oct. 24, 2014 Rise Set
Actual Time 8:03 AM EDT 6:55 PM EDT
Civil Twilight 7:36 AM EDT 7:22 PM EDT
Nautical Twilight 7:05 AM EDT 7:53 PM EDT
Astronomical Twilight 6:34 AM EDT 8:23 PM EDT
Moon 8:41 AM EDT 7:35 PM EDT
Length of Visible Light 11h 46m
Length of Day
10h 52m
Tomorrow will be 2m 17s shorter.
New Moon, 1% of the Moon is Illuminated
Today
New Moon
Oct 30
First Quarter
Nov 6
Full
Nov 14
Last Quarter
Nov 22
New

Today's Extremes

State Highs State Lows

Community

WunderPhotos

Upload Photos

1,764,581 photos uploaded!

Nearby

Air Quality

  Air Quality AQ Index Pollutant
Yesterday Good
PM10
Yesterday Good
OZONE
Current Moderate
PM2.5
Current Good
OZONE
Friday Moderate
PM2.5
Friday Good
OZONE
Saturday Moderate
PM2.5
Saturday Good
OZONE
Sunday Moderate
PM2.5
Sunday Good
OZONE
Monday Moderate
PM2.5
Monday Good
OZONE

Snow Depth

Station Depth Elevation
No new snow has been reported.

Earthquake Activity

City Distance Mag. Time & Date
No recent earthquake activity has been reported nearby.
Minimum magnitude displayed is 2.5.

Coastal Water Temperatures

Place Temperature
No Stations Reporting

Nearby Weather Stations